sensor_id;sensor_type;location;lat;lon;timestamp;pressure;altitude;pressure_sealevel;temperature;humidity
19736;BME280;32064;49.310;8.646;2022-09-03T00:02:32;100029.56;;;21.94;41.95
19736;BME280;32064;49.310;8.646;2022-09-03T00:04:46;100031.22;;;21.95;41.50
19736;BME280;32064;49.310;8.646;2022-09-03T00:07:34;100032.00;;;21.89;42.69
19736;BME280;32064;49.310;8.646;2022-09-03T00:10:08;100030.97;;;21.90;41.64
19736;BME280;32064;49.310;8.646;2022-09-03T00:12:40;100035.09;;;21.93;41.80
19736;BME280;32064;49.310;8.646;2022-09-03T00:15:11;100038.59;;;21.93;41.93
19736;BME280;32064;49.310;8.646;2022-09-03T00:20:15;100028.09;;;21.92;41.93
19736;BME280;32064;49.310;8.646;2022-09-03T00:22:45;100032.00;;;21.89;42.68
19736;BME280;32064;49.310;8.646;2022-09-03T00:25:17;100026.41;;;21.91;42.73
19736;BME280;32064;49.310;8.646;2022-09-03T00:27:47;100028.28;;;21.90;42.18
19736;BME280;32064;49.310;8.646;2022-09-03T00:30:16;100028.09;;;21.92;41.88
19736;BME280;32064;49.310;8.646;2022-09-03T00:35:31;100028.22;;;21.84;42.45
19736;BME280;32064;49.310;8.646;2022-09-03T00:37:58;100034.03;;;21.87;42.98
19736;BME280;32064;49.310;8.646;2022-09-03T00:48:34;100022.66;;;21.85;42.00
19736;BME280;32064;49.310;8.646;2022-09-03T01:01:44;100011.06;;;21.78;42.36
19736;BME280;32064;49.310;8.646;2022-09-03T01:07:28;100029.81;;;21.78;43.17
19736;BME280;32064;49.310;8.646;2022-09-03T01:09:57;100013.69;;;21.71;42.90
19736;BME280;32064;49.310;8.646;2022-09-03T01:12:37;100024.13;;;21.66;42.77
19736;BME280;32064;49.310;8.646;2022-09-03T01:18:03;100017.59;;;21.54;42.83
19736;BME280;32064;49.310;8.646;2022-09-03T01:20:57;100019.25;;;21.55;43.29
19736;BME280;32064;49.310;8.646;2022-09-03T01:24:26;100021.56;;;21.58;43.32
19736;BME280;32064;49.310;8.646;2022-09-03T01:29:39;100018.50;;;21.61;42.64
19736;BME280;32064;49.310;8.646;2022-09-03T01:32:15;100016.00;;;21.60;43.26
19736;BME280;32064;49.310;8.646;2022-09-03T01:34:50;100018.94;;;21.65;43.00
19736;BME280;32064;49.310;8.646;2022-09-03T01:51:00;100033.84;;;21.52;42.69
19736;BME280;32064;49.310;8.646;2022-09-03T01:53:40;100039.84;;;21.55;43.54
19736;BME280;32064;49.310;8.646;2022-09-03T02:02:28;100023.69;;;21.48;42.96
19736;BME280;32064;49.310;8.646;2022-09-03T02:07:45;100027.50;;;21.39;44.00
19736;BME280;32064;49.310;8.646;2022-09-03T02:10:17;100030.19;;;21.39;43.89
19736;BME280;32064;49.310;8.646;2022-09-03T02:12:56;100038.66;;;21.42;43.55
19736;BME280;32064;49.310;8.646;2022-09-03T02:15:24;100039.47;;;21.43;43.52
19736;BME280;32064;49.310;8.646;2022-09-03T02:17:54;100038.47;;;21.44;43.98
19736;BME280;32064;49.310;8.646;2022-09-03T02:20:23;100040.41;;;21.35;43.66
19736;BME280;32064;49.310;8.646;2022-09-03T02:22:51;100030.69;;;21.34;43.31
19736;BME280;32064;49.310;8.646;2022-09-03T02:25:21;100033.88;;;21.38;43.79
19736;BME280;32064;49.310;8.646;2022-09-03T02:27:48;100045.75;;;21.35;44.19
19736;BME280;32064;49.310;8.646;2022-09-03T02:30:13;100048.31;;;21.28;43.53
19736;BME280;32064;49.310;8.646;2022-09-03T02:32:39;100044.03;;;21.13;44.33
19736;BME280;32064;49.310;8.646;2022-09-03T02:35:05;100043.34;;;21.25;44.29
19736;BME280;32064;49.310;8.646;2022-09-03T02:37:31;100046.69;;;21.27;43.25
19736;BME280;32064;49.310;8.646;2022-09-03T02:39:56;100042.53;;;21.25;44.08
19736;BME280;32064;49.310;8.646;2022-09-03T02:42:22;100047.34;;;21.29;44.63
19736;BME280;32064;49.310;8.646;2022-09-03T02:44:52;100047.22;;;21.23;44.14
19736;BME280;32064;49.310;8.646;2022-09-03T02:47:19;100038.38;;;21.22;44.31
19736;BME280;32064;49.310;8.646;2022-09-03T02:49:48;100050.09;;;21.21;43.89
19736;BME280;32064;49.310;8.646;2022-09-03T02:52:13;100047.06;;;21.24;44.08
19736;BME280;32064;49.310;8.646;2022-09-03T02:54:39;100052.34;;;21.18;43.87
19736;BME280;32064;49.310;8.646;2022-09-03T02:57:10;100049.66;;;21.18;44.68
19736;BME280;32064;49.310;8.646;2022-09-03T02:59:36;100050.94;;;21.22;44.46
19736;BME280;32064;49.310;8.646;2022-09-03T03:02:02;100054.81;;;21.19;44.36
19736;BME280;32064;49.310;8.646;2022-09-03T03:04:29;100053.81;;;21.20;44.54
19736;BME280;32064;49.310;8.646;2022-09-03T03:06:55;100047.44;;;21.21;44.35
19736;BME280;32064;49.310;8.646;2022-09-03T03:09:20;100049.81;;;21.16;44.24
19736;BME280;32064;49.310;8.646;2022-09-03T03:11:46;100047.16;;;21.16;44.37
19736;BME280;32064;49.310;8.646;2022-09-03T03:14:14;100045.88;;;21.12;44.79
19736;BME280;32064;49.310;8.646;2022-09-03T03:16:39;100035.78;;;21.14;44.54
19736;BME280;32064;49.310;8.646;2022-09-03T03:19:05;100041.88;;;21.08;44.86
19736;BME280;32064;49.310;8.646;2022-09-03T03:21:30;100035.44;;;21.02;44.95
19736;BME280;32064;49.310;8.646;2022-09-03T03:23:55;100033.88;;;21.08;44.63
19736;BME280;32064;49.310;8.646;2022-09-03T03:26:21;100044.56;;;21.08;44.57
19736;BME280;32064;49.310;8.646;2022-09-03T03:28:49;100038.94;;;21.03;44.48
19736;BME280;32064;49.310;8.646;2022-09-03T03:31:17;100030.28;;;21.01;45.04
19736;BME280;32064;49.310;8.646;2022-09-03T03:33:44;100036.75;;;21.06;44.77
19736;BME280;32064;49.310;8.646;2022-09-03T03:36:15;100038.31;;;21.01;45.50
19736;BME280;32064;49.310;8.646;2022-09-03T03:38:42;100038.47;;;20.99;45.06
19736;BME280;32064;49.310;8.646;2022-09-03T03:41:13;100040.69;;;20.96;45.53
19736;BME280;32064;49.310;8.646;2022-09-03T03:43:38;100044.28;;;21.03;45.78
19736;BME280;32064;49.310;8.646;2022-09-03T03:46:04;100045.31;;;21.02;45.71
19736;BME280;32064;49.310;8.646;2022-09-03T03:48:31;100044.47;;;21.01;45.15
19736;BME280;32064;49.310;8.646;2022-09-03T03:51:03;100039.50;;;20.98;45.36
19736;BME280;32064;49.310;8.646;2022-09-03T03:53:34;100039.50;;;20.98;45.80
19736;BME280;32064;49.310;8.646;2022-09-03T03:56:02;100049.00;;;21.01;45.83
19736;BME280;32064;49.310;8.646;2022-09-03T03:58:29;100043.66;;;21.01;45.37
19736;BME280;32064;49.310;8.646;2022-09-03T04:01:06;100044.84;;;20.98;45.97
19736;BME280;32064;49.310;8.646;2022-09-03T04:03:33;100039.50;;;20.98;45.65
19736;BME280;32064;49.310;8.646;2022-09-03T04:08:28;100064.94;;;20.94;45.55
19736;BME280;32064;49.310;8.646;2022-09-03T04:10:57;100062.63;;;20.91;45.60
19736;BME280;32064;49.310;8.646;2022-09-03T04:13:23;100074.91;;;20.85;47.20
19736;BME280;32064;49.310;8.646;2022-09-03T04:15:49;100064.28;;;20.77;47.12
19736;BME280;32064;49.310;8.646;2022-09-03T04:18:14;100066.41;;;20.82;47.31
19736;BME280;32064;49.310;8.646;2022-09-03T04:20:39;100072.78;;;20.81;47.68
19736;BME280;32064;49.310;8.646;2022-09-03T04:23:05;100072.78;;;20.81;47.03
19736;BME280;32064;49.310;8.646;2022-09-03T04:25:31;100071.94;;;20.80;47.65
19736;BME280;32064;49.310;8.646;2022-09-03T04:27:57;100068.81;;;20.77;47.27
19736;BME280;32064;49.310;8.646;2022-09-03T04:30:23;100066.78;;;20.79;48.11
19736;BME280;32064;49.310;8.646;2022-09-03T04:32:49;100067.69;;;20.71;49.22
19736;BME280;32064;49.310;8.646;2022-09-03T04:35:18;100060.41;;;20.65;49.28
19736;BME280;32064;49.310;8.646;2022-09-03T04:37:45;100062.97;;;20.58;50.39
19736;BME280;32064;49.310;8.646;2022-09-03T04:40:11;100071.16;;;20.57;49.39
19736;BME280;32064;49.310;8.646;2022-09-03T04:42:36;100084.19;;;20.52;49.81
19736;BME280;32064;49.310;8.646;2022-09-03T04:45:02;100091.94;;;20.47;50.63
19736;BME280;32064;49.310;8.646;2022-09-03T04:47:28;100085.38;;;20.49;51.55
19736;BME280;32064;49.310;8.646;2022-09-03T04:49:53;100090.16;;;20.39;51.57
19736;BME280;32064;49.310;8.646;2022-09-03T04:52:19;100084.69;;;20.32;51.74
19736;BME280;32064;49.310;8.646;2022-09-03T04:54:44;100079.34;;;20.32;53.93
19736;BME280;32064;49.310;8.646;2022-09-03T04:57:10;100078.50;;;20.32;54.96
19736;BME280;32064;49.310;8.646;2022-09-03T04:59:35;100089.91;;;20.26;54.51
19736;BME280;32064;49.310;8.646;2022-09-03T05:02:01;100086.13;;;20.20;53.66
19736;BME280;32064;49.310;8.646;2022-09-03T05:04:27;100088.25;;;20.02;53.91
19736;BME280;32064;49.310;8.646;2022-09-03T05:06:52;100089.56;;;20.06;54.38
19736;BME280;32064;49.310;8.646;2022-09-03T05:09:18;100086.53;;;20.09;54.88
19736;BME280;32064;49.310;8.646;2022-09-03T05:11:44;100082.94;;;20.02;54.94
19736;BME280;32064;49.310;8.646;2022-09-03T05:14:09;100076.91;;;20.00;54.45
19736;BME280;32064;49.310;8.646;2022-09-03T05:16:36;100082.94;;;20.02;54.98
19736;BME280;32064;49.310;8.646;2022-09-03T05:19:02;100086.22;;;20.04;55.12
19736;BME280;32064;49.310;8.646;2022-09-03T05:21:33;100084.41;;;20.04;55.37
19736;BME280;32064;49.310;8.646;2022-09-03T05:24:00;100093.25;;;20.05;55.15
19736;BME280;32064;49.310;8.646;2022-09-03T05:26:28;100091.44;;;19.97;54.67
19736;BME280;32064;49.310;8.646;2022-09-03T05:28:55;100088.13;;;19.95;54.87
19736;BME280;32064;49.310;8.646;2022-09-03T05:31:22;100092.28;;;19.98;55.24
19736;BME280;32064;49.310;8.646;2022-09-03T05:33:52;100094.53;;;19.86;54.70
19736;BME280;32064;49.310;8.646;2022-09-03T05:36:20;100096.00;;;19.88;55.42
19736;BME280;32064;49.310;8.646;2022-09-03T05:38:50;100094.13;;;19.97;55.22
19736;BME280;32064;49.310;8.646;2022-09-03T05:41:17;100096.31;;;19.93;55.04
19736;BME280;32064;49.310;8.646;2022-09-03T05:43:43;100104.19;;;19.87;55.08
19736;BME280;32064;49.310;8.646;2022-09-03T05:46:13;100109.69;;;19.93;55.74
19736;BME280;32064;49.310;8.646;2022-09-03T05:48:43;100120.00;;;19.96;54.67
19736;BME280;32064;49.310;8.646;2022-09-03T05:51:10;100111.59;;;20.08;54.34
19736;BME280;32064;49.310;8.646;2022-09-03T05:53:41;100120.91;;;20.12;54.78
19736;BME280;32064;49.310;8.646;2022-09-03T05:56:18;100116.38;;;20.12;55.70
19736;BME280;32064;49.310;8.646;2022-09-03T05:58:46;100121.22;;;20.17;54.69
19736;BME280;32064;49.310;8.646;2022-09-03T06:01:20;100117.66;;;20.25;56.04
19736;BME280;32064;49.310;8.646;2022-09-03T06:03:49;100122.44;;;20.29;55.49
19736;BME280;32064;49.310;8.646;2022-09-03T06:06:17;100117.31;;;20.28;55.36
19736;BME280;32064;49.310;8.646;2022-09-03T06:08:43;100126.31;;;20.27;55.26
19736;BME280;32064;49.310;8.646;2022-09-03T06:11:09;100119.66;;;20.23;55.24
19736;BME280;32064;49.310;8.646;2022-09-03T06:13:35;100133.19;;;20.21;55.29
19736;BME280;32064;49.310;8.646;2022-09-03T06:16:04;100132.88;;;20.24;56.34
19736;BME280;32064;49.310;8.646;2022-09-03T06:18:30;100138.22;;;20.24;56.54
19736;BME280;32064;49.310;8.646;2022-09-03T06:20:58;100140.38;;;20.21;57.45
19736;BME280;32064;49.310;8.646;2022-09-03T06:23:24;100142.53;;;20.25;58.28
19736;BME280;32064;49.310;8.646;2022-09-03T06:26:04;100155.59;;;20.20;59.73
19736;BME280;32064;49.310;8.646;2022-09-03T06:28:31;100151.72;;;20.23;59.57
19736;BME280;32064;49.310;8.646;2022-09-03T06:30:59;100149.47;;;20.11;59.26
19736;BME280;32064;49.310;8.646;2022-09-03T06:33:25;100159.00;;;20.06;59.31
19736;BME280;32064;49.310;8.646;2022-09-03T06:35:54;100155.66;;;20.04;60.56
19736;BME280;32064;49.310;8.646;2022-09-03T06:38:23;100155.16;;;20.08;61.25
19736;BME280;32064;49.310;8.646;2022-09-03T06:40:56;100153.19;;;20.02;62.49
19736;BME280;32064;49.310;8.646;2022-09-03T06:43:23;100161.91;;;19.96;61.82
19736;BME280;32064;49.310;8.646;2022-09-03T06:46:03;100148.56;;;19.96;62.88
19736;BME280;32064;49.310;8.646;2022-09-03T06:48:30;100138.84;;;19.95;62.65
19736;BME280;32064;49.310;8.646;2022-09-03T06:53:24;100139.13;;;19.77;63.66
19736;BME280;32064;49.310;8.646;2022-09-03T06:55:59;100145.47;;;19.76;63.99
19736;BME280;32064;49.310;8.646;2022-09-03T06:58:30;100151.66;;;19.77;63.45
19736;BME280;32064;49.310;8.646;2022-09-03T07:01:10;100160.63;;;19.76;63.97
19736;BME280;32064;49.310;8.646;2022-09-03T07:03:38;100155.47;;;19.82;65.05
19736;BME280;32064;49.310;8.646;2022-09-03T07:06:06;100155.47;;;19.82;64.16
19736;BME280;32064;49.310;8.646;2022-09-03T07:08:32;100149.97;;;19.76;64.70
19736;BME280;32064;49.310;8.646;2022-09-03T07:10:59;100147.63;;;19.72;66.04
19736;BME280;32064;49.310;8.646;2022-09-03T07:13:28;100155.31;;;19.76;65.01
19736;BME280;32064;49.310;8.646;2022-09-03T07:15:58;100156.69;;;19.55;65.20
19736;BME280;32064;49.310;8.646;2022-09-03T07:18:24;100150.19;;;19.58;66.38
19736;BME280;32064;49.310;8.646;2022-09-03T07:20:49;100167.69;;;19.60;65.63
19736;BME280;32064;49.310;8.646;2022-09-03T07:23:15;100167.19;;;19.65;66.21
19736;BME280;32064;49.310;8.646;2022-09-03T07:25:40;100171.66;;;19.64;66.15
19736;BME280;32064;49.310;8.646;2022-09-03T07:28:06;100174.34;;;19.72;66.74
19736;BME280;32064;49.310;8.646;2022-09-03T07:30:31;100178.31;;;19.85;66.89
19736;BME280;32064;49.310;8.646;2022-09-03T07:32:57;100168.50;;;20.08;66.91
19736;BME280;32064;49.310;8.646;2022-09-03T07:35:25;100178.59;;;20.21;65.50
19736;BME280;32064;49.310;8.646;2022-09-03T07:37:51;100178.16;;;20.40;65.89
19736;BME280;32064;49.310;8.646;2022-09-03T07:40:17;100185.59;;;20.30;65.67
19736;BME280;32064;49.310;8.646;2022-09-03T07:42:44;100178.97;;;20.18;66.47
19736;BME280;32064;49.310;8.646;2022-09-03T07:45:12;100190.97;;;19.91;66.66
19736;BME280;32064;49.310;8.646;2022-09-03T07:47:45;100193.53;;;19.76;67.74
19736;BME280;32064;49.310;8.646;2022-09-03T07:50:11;100184.06;;;19.65;68.19
19736;BME280;32064;49.310;8.646;2022-09-03T07:52:36;100178.69;;;19.73;68.97
19736;BME280;32064;49.310;8.646;2022-09-03T07:55:02;100183.84;;;19.75;68.37
19736;BME280;32064;49.310;8.646;2022-09-03T07:57:29;100182.34;;;19.72;69.16
19736;BME280;32064;49.310;8.646;2022-09-03T07:59:54;100178.38;;;19.68;69.44
19736;BME280;32064;49.310;8.646;2022-09-03T08:02:20;100185.00;;;19.64;69.71
19736;BME280;32064;49.310;8.646;2022-09-03T08:04:45;100185.88;;;19.65;69.54
19736;BME280;32064;49.310;8.646;2022-09-03T08:07:11;100177.84;;;19.65;70.11
19736;BME280;32064;49.310;8.646;2022-09-03T08:09:36;100169.84;;;19.65;69.71
19736;BME280;32064;49.310;8.646;2022-09-03T08:12:02;100173.72;;;19.54;70.02
19736;BME280;32064;49.310;8.646;2022-09-03T08:14:28;100169.41;;;19.45;70.69
19736;BME280;32064;49.310;8.646;2022-09-03T08:16:56;100166.91;;;19.43;70.27
19736;BME280;32064;49.310;8.646;2022-09-03T08:19:24;100172.09;;;19.45;70.78
19736;BME280;32064;49.310;8.646;2022-09-03T08:21:49;100176.09;;;19.24;71.56
19736;BME280;32064;49.310;8.646;2022-09-03T08:24:18;100182.78;;;19.20;71.57
19736;BME280;32064;49.310;8.646;2022-09-03T08:26:46;100193.63;;;19.19;71.53
19736;BME280;32064;49.310;8.646;2022-09-03T08:29:11;100199.47;;;19.14;71.88
19736;BME280;32064;49.310;8.646;2022-09-03T08:31:37;100191.81;;;19.11;71.83
19736;BME280;32064;49.310;8.646;2022-09-03T08:34:05;100208.78;;;18.94;72.39
19736;BME280;32064;49.310;8.646;2022-09-03T08:36:34;100202.16;;;18.98;71.97
19736;BME280;32064;49.310;8.646;2022-09-03T08:39:02;100198.47;;;18.99;72.17
19736;BME280;32064;49.310;8.646;2022-09-03T08:47:25;100181.63;;;18.90;73.74
19736;BME280;32064;49.310;8.646;2022-09-03T08:50:27;100185.75;;;18.68;74.51
19736;BME280;32064;49.310;8.646;2022-09-03T08:53:56;100199.09;;;18.52;74.48
19736;BME280;32064;49.310;8.646;2022-09-03T08:56:07;100205.91;;;18.62;74.14
19736;BME280;32064;49.310;8.646;2022-09-03T08:58:35;100210.59;;;18.69;74.19
19736;BME280;32064;49.310;8.646;2022-09-03T09:12:11;100199.81;;;18.95;75.11
19736;BME280;32064;49.310;8.646;2022-09-03T09:22:48;100239.25;;;19.57;75.41
19736;BME280;32064;49.310;8.646;2022-09-03T09:25:20;100229.91;;;19.77;75.95
19736;BME280;32064;49.310;8.646;2022-09-03T09:27:55;100238.66;;;20.02;74.90
19736;BME280;32064;49.310;8.646;2022-09-03T09:30:22;100241.56;;;20.24;74.54
19736;BME280;32064;49.310;8.646;2022-09-03T09:32:47;100231.81;;;20.39;74.50
19736;BME280;32064;49.310;8.646;2022-09-03T09:35:14;100234.75;;;20.52;74.90
19736;BME280;32064;49.310;8.646;2022-09-03T09:37:48;100239.41;;;20.58;74.66
19736;BME280;32064;49.310;8.646;2022-09-03T09:42:48;100241.63;;;20.47;72.84
19736;BME280;32064;49.310;8.646;2022-09-03T09:45:14;100235.88;;;20.58;73.66
19736;BME280;32064;49.310;8.646;2022-09-03T09:47:42;100239.78;;;20.78;73.29
19736;BME280;32064;49.310;8.646;2022-09-03T09:50:18;100234.00;;;20.90;74.10
19736;BME280;32064;49.310;8.646;2022-09-03T09:52:45;100237.56;;;21.05;72.74
19736;BME280;32064;49.310;8.646;2022-09-03T09:55:17;100237.06;;;21.24;72.26
19736;BME280;32064;49.310;8.646;2022-09-03T09:57:44;100238.25;;;21.60;71.69
19736;BME280;32064;49.310;8.646;2022-09-03T10:00:15;100239.44;;;22.02;71.66
19736;BME280;32064;49.310;8.646;2022-09-03T10:02:49;100243.16;;;22.01;70.80
19736;BME280;32064;49.310;8.646;2022-09-03T10:07:56;100231.44;;;21.57;70.80
19736;BME280;32064;49.310;8.646;2022-09-03T10:10:24;100232.53;;;21.63;71.96
19736;BME280;32064;49.310;8.646;2022-09-03T10:18:52;100222.00;;;22.06;71.28
19736;BME280;32064;49.310;8.646;2022-09-03T10:26:51;100203.03;;;23.01;71.58
19736;BME280;32064;49.310;8.646;2022-09-03T10:29:21;100193.97;;;23.30;69.46
19736;BME280;32064;49.310;8.646;2022-09-03T10:32:02;100193.56;;;23.62;69.60
19736;BME280;32064;49.310;8.646;2022-09-03T10:34:59;100194.09;;;24.40;66.44
19736;BME280;32064;49.310;8.646;2022-09-03T10:40:18;100189.69;;;25.34;64.56
19736;BME280;32064;49.310;8.646;2022-09-03T10:43:03;100207.69;;;25.06;64.24
19736;BME280;32064;49.310;8.646;2022-09-03T10:45:58;100215.09;;;24.64;65.10
19736;BME280;32064;49.310;8.646;2022-09-03T10:51:05;100211.28;;;27.07;60.82
19736;BME280;32064;49.310;8.646;2022-09-03T10:53:46;100221.28;;;29.49;55.79
19736;BME280;32064;49.310;8.646;2022-09-03T11:07:27;100232.63;;;32.03;45.17
19736;BME280;32064;49.310;8.646;2022-09-03T11:12:42;100214.59;;;30.45;49.40
19736;BME280;32064;49.310;8.646;2022-09-03T11:17:46;100216.88;;;31.66;46.23
19736;BME280;32064;49.310;8.646;2022-09-03T11:22:39;100214.84;;;31.39;45.34
19736;BME280;32064;49.310;8.646;2022-09-03T11:25:06;100213.50;;;30.74;47.42
19736;BME280;32064;49.310;8.646;2022-09-03T11:27:43;100198.47;;;30.38;48.49
19736;BME280;32064;49.310;8.646;2022-09-03T11:30:21;100193.47;;;30.06;47.52
19736;BME280;32064;49.310;8.646;2022-09-03T11:32:51;100199.69;;;30.18;47.37
19736;BME280;32064;49.310;8.646;2022-09-03T11:46:51;100192.53;;;29.37;48.98
19736;BME280;32064;49.310;8.646;2022-09-03T11:49:08;100184.72;;;28.93;49.81
19736;BME280;32064;49.310;8.646;2022-09-03T11:51:36;100182.91;;;28.75;51.23
19736;BME280;32064;49.310;8.646;2022-09-03T11:56:36;100171.72;;;28.41;50.88
19736;BME280;32064;49.310;8.646;2022-09-03T12:01:33;100173.88;;;28.39;51.51
19736;BME280;32064;49.310;8.646;2022-09-03T12:04:03;100177.66;;;28.20;51.56
19736;BME280;32064;49.310;8.646;2022-09-03T12:06:47;100181.31;;;28.44;50.98
19736;BME280;32064;49.310;8.646;2022-09-03T12:17:10;100173.03;;;28.81;50.48
19736;BME280;32064;49.310;8.646;2022-09-03T12:19:44;100169.91;;;29.31;49.77
19736;BME280;32064;49.310;8.646;2022-09-03T12:22:17;100169.91;;;29.19;49.95
19736;BME280;32064;49.310;8.646;2022-09-03T12:24:43;100169.78;;;29.14;49.74
19736;BME280;32064;49.310;8.646;2022-09-03T12:27:20;100167.94;;;28.73;50.85
19736;BME280;32064;49.310;8.646;2022-09-03T12:29:54;100171.28;;;28.45;50.96
19736;BME280;32064;49.310;8.646;2022-09-03T12:32:27;100170.72;;;28.24;51.39
19736;BME280;32064;49.310;8.646;2022-09-03T12:34:55;100172.59;;;27.93;51.62
19736;BME280;32064;49.310;8.646;2022-09-03T12:37:25;100180.31;;;27.53;52.17
19736;BME280;32064;49.310;8.646;2022-09-03T12:39:54;100190.84;;;27.61;51.93
19736;BME280;32064;49.310;8.646;2022-09-03T12:42:26;100181.25;;;27.84;51.82
19736;BME280;32064;49.310;8.646;2022-09-03T12:44:52;100176.66;;;28.33;51.63
19736;BME280;32064;49.310;8.646;2022-09-03T12:47:20;100179.66;;;28.85;50.87
19736;BME280;32064;49.310;8.646;2022-09-03T12:49:49;100176.03;;;29.03;50.82
19736;BME280;32064;49.310;8.646;2022-09-03T12:58:23;100178.50;;;29.51;48.40
19736;BME280;32064;49.310;8.646;2022-09-03T13:00:56;100178.16;;;29.36;48.51
19736;BME280;32064;49.310;8.646;2022-09-03T13:03:30;100189.72;;;29.67;49.48
19736;BME280;32064;49.310;8.646;2022-09-03T13:06:01;100195.94;;;29.79;47.75
19736;BME280;32064;49.310;8.646;2022-09-03T13:08:34;100182.22;;;29.86;48.50
19736;BME280;32064;49.310;8.646;2022-09-03T13:11:02;100183.63;;;29.88;48.56
19736;BME280;32064;49.310;8.646;2022-09-03T13:13:36;100189.88;;;29.89;49.31
19736;BME280;32064;49.310;8.646;2022-09-03T13:21:18;100186.16;;;29.66;48.25
19736;BME280;32064;49.310;8.646;2022-09-03T13:24:06;100185.47;;;29.99;49.23
19736;BME280;32064;49.310;8.646;2022-09-03T13:27:03;100181.06;;;29.82;47.33
19736;BME280;32064;49.310;8.646;2022-09-03T13:32:21;100180.31;;;29.86;49.38
19736;BME280;32064;49.310;8.646;2022-09-03T13:35:09;100184.03;;;30.09;48.50
19736;BME280;32064;49.310;8.646;2022-09-03T13:37:44;100182.53;;;30.01;49.56
19736;BME280;32064;49.310;8.646;2022-09-03T13:40:45;100177.91;;;29.73;49.28
19736;BME280;32064;49.310;8.646;2022-09-03T13:43:47;100179.38;;;29.92;48.27
19736;BME280;32064;49.310;8.646;2022-09-03T13:46:29;100167.88;;;29.73;48.81
19736;BME280;32064;49.310;8.646;2022-09-03T14:00:30;100153.47;;;29.49;49.71
19736;BME280;32064;49.310;8.646;2022-09-03T14:05:42;100166.25;;;29.02;50.07
19736;BME280;32064;49.310;8.646;2022-09-03T14:11:04;100156.69;;;28.87;51.70
19736;BME280;32064;49.310;8.646;2022-09-03T14:16:53;100153.97;;;28.87;51.58
19736;BME280;32064;49.310;8.646;2022-09-03T14:22:24;100144.81;;;28.47;52.69
19736;BME280;32064;49.310;8.646;2022-09-03T14:24:54;100154.22;;;28.44;52.35
19736;BME280;32064;49.310;8.646;2022-09-03T14:27:27;100159.91;;;28.24;51.98
19736;BME280;32064;49.310;8.646;2022-09-03T14:29:58;100156.03;;;28.02;53.43
19736;BME280;32064;49.310;8.646;2022-09-03T14:32:31;100161.88;;;27.87;53.22
19736;BME280;32064;49.310;8.646;2022-09-03T14:35:22;100168.41;;;27.79;53.48
19736;BME280;32064;49.310;8.646;2022-09-03T14:40:45;100165.50;;;28.11;53.99
19736;BME280;32064;49.310;8.646;2022-09-03T14:54:49;100166.50;;;27.98;55.63
19736;BME280;32064;49.310;8.646;2022-09-03T15:07:58;100166.75;;;27.16;56.06
19736;BME280;32064;49.310;8.646;2022-09-03T15:13:09;100177.16;;;26.87;56.57
19736;BME280;32064;49.310;8.646;2022-09-03T15:26:59;100185.72;;;26.46;58.15
19736;BME280;32064;49.310;8.646;2022-09-03T15:30:08;100188.09;;;26.36;58.91
19736;BME280;32064;49.310;8.646;2022-09-03T15:35:44;100186.47;;;26.28;59.55
19736;BME280;32064;49.310;8.646;2022-09-03T15:38:46;100194.16;;;26.25;60.20
19736;BME280;32064;49.310;8.646;2022-09-03T15:41:28;100188.78;;;26.18;60.61
19736;BME280;32064;49.310;8.646;2022-09-03T15:44:00;100183.81;;;26.15;60.06
19736;BME280;32064;49.310;8.646;2022-09-03T15:52:25;100184.53;;;25.97;60.95
19736;BME280;32064;49.310;8.646;2022-09-03T15:55:09;100189.97;;;25.90;62.03
19736;BME280;32064;49.310;8.646;2022-09-03T16:00:20;100188.13;;;25.71;63.65
19736;BME280;32064;49.310;8.646;2022-09-03T16:03:08;100187.13;;;25.59;64.75
19736;BME280;32064;49.310;8.646;2022-09-03T16:05:40;100184.66;;;25.57;64.94
19736;BME280;32064;49.310;8.646;2022-09-03T16:08:24;100190.25;;;25.49;66.66
19736;BME280;32064;49.310;8.646;2022-09-03T16:11:09;100195.84;;;25.47;67.18
19736;BME280;32064;49.310;8.646;2022-09-03T16:13:49;100195.44;;;25.44;67.19
19736;BME280;32064;49.310;8.646;2022-09-03T16:16:23;100190.06;;;25.37;67.53
19736;BME280;32064;49.310;8.646;2022-09-03T16:21:38;100195.28;;;25.25;67.85
19736;BME280;32064;49.310;8.646;2022-09-03T16:24:17;100199.63;;;25.26;67.42
19736;BME280;32064;49.310;8.646;2022-09-03T16:29:12;100204.16;;;25.19;67.69
19736;BME280;32064;49.310;8.646;2022-09-03T16:34:28;100195.25;;;25.12;68.27
19736;BME280;32064;49.310;8.646;2022-09-03T16:40:00;100187.19;;;25.05;67.07
19736;BME280;32064;49.310;8.646;2022-09-03T16:42:58;100195.66;;;24.96;66.04
19736;BME280;32064;49.310;8.646;2022-09-03T16:51:09;100198.34;;;24.82;67.75
19736;BME280;32064;49.310;8.646;2022-09-03T16:53:56;100198.34;;;24.82;69.19
19736;BME280;32064;49.310;8.646;2022-09-03T17:00:05;100189.88;;;24.85;68.33
19736;BME280;32064;49.310;8.646;2022-09-03T17:05:52;100199.59;;;24.80;67.40
19736;BME280;32064;49.310;8.646;2022-09-03T17:08:32;100200.63;;;24.72;66.99
19736;BME280;32064;49.310;8.646;2022-09-03T17:11:36;100201.03;;;24.69;66.48
19736;BME280;32064;49.310;8.646;2022-09-03T17:20:26;100193.56;;;24.64;67.88
19736;BME280;32064;49.310;8.646;2022-09-03T17:25:50;100186.75;;;24.69;68.66
19736;BME280;32064;49.310;8.646;2022-09-03T17:28:31;100193.19;;;24.74;67.98
19736;BME280;32064;49.310;8.646;2022-09-03T17:31:35;100200.81;;;24.64;67.93
19736;BME280;32064;49.310;8.646;2022-09-03T17:34:32;100192.75;;;24.57;68.66
19736;BME280;32064;49.310;8.646;2022-09-03T17:39:52;100198.09;;;24.51;69.81
19736;BME280;32064;49.310;8.646;2022-09-03T17:42:34;100209.88;;;24.43;68.79
19736;BME280;32064;49.310;8.646;2022-09-03T17:47:51;100207.31;;;24.28;67.51
19736;BME280;32064;49.310;8.646;2022-09-03T17:50:28;100215.78;;;24.25;67.66